Bouzas — EAPC — position and weather

sailwx.info

Track history (hours):
 
Tides and Currents Weather Stations Pressure Air Temp Water Temp Dewpoint Dewpoint Depression Visibility Wind Speed Wind Dir Waves Ship Positions

Bouzas

Last reported at 2017-Feb-21 04:24 UTC. Time now 2017-Feb-23 04:53 UTC.
Position N 46°05' W 004°37'.

Length 142 m; draft 5.4 m.

Type: Cargo ship. MMSI: 224029000.

Date/timePositionNaut miles runAvg speedWind from/ knotsBaromVisibWave heightAir tempDewpointWater temp
2017-Feb-21 04:24N 46°05' W 004°37'1517.8
2017-Feb-21 03:33N 46°14' W 004°18'1817.9
2017-Feb-21 02:33N 46°24' W 003°57'1818.2
2017-Feb-21 01:33N 46°35' W 003°35'1717.7
2017-Feb-21 00:33N 46°44' W 003°14'1818.1
2017-Feb-20 23:33N 46°55' W 002°52'1717.0
2017-Feb-20 22:33N 47°03' W 002°30'1515.1
2017-Feb-20 21:33N 47°14' W 002°15'5 4.7
2017-Feb-20 20:31N 47°17' W 002°10'0 0.0
2017-Feb-20 19:31N 47°17' W 002°10'0 0.0
2017-Feb-20 18:22N 47°17' W 002°10'0 0.0
2017-Feb-20 17:04N 47°17' W 002°10'0 0.0
2017-Feb-20 16:25N 47°17' W 002°10'0 0.0
2017-Feb-20 15:28N 47°17' W 002°10'0 0.0
2017-Feb-20 14:31N 47°17' W 002°10'0 0.0
2017-Feb-20 13:31N 47°17' W 002°10'0 0.0
2017-Feb-20 12:22N 47°17' W 002°10'0 0.0
2017-Feb-20 11:07N 47°17' W 002°10'0 0.0
2017-Feb-20 10:28N 47°17' W 002°10'0 0.0
2017-Feb-20 08:31N 47°17' W 002°10'0 0.0
2017-Feb-20 07:19N 47°17' W 002°10'0 0.0
2017-Feb-20 06:25N 47°17' W 002°10'0 0.0
2017-Feb-20 05:31N 47°17' W 002°10'0 0.0
2017-Feb-20 04:31N 47°17' W 002°10'0 0.0
2017-Feb-20 03:31N 47°17' W 002°10'0 0.0
2017-Feb-20 02:31N 47°17' W 002°10'0 0.0
2017-Feb-20 01:33N 47°17' W 002°10'0 0.0
2017-Feb-20 00:33N 47°17' W 002°10'0 0.0
2017-Feb-19 23:33N 47°17' W 002°10'0 0.0
2017-Feb-19 22:33N 47°17' W 002°10'0 0.0
2017-Feb-19 21:33N 47°17' W 002°10'0 0.0
2017-Feb-19 20:33N 47°17' W 002°10'0 0.0
2017-Feb-19 19:33N 47°17' W 002°10'0 0.0
2017-Feb-19 18:33N 47°17' W 002°10'0 0.0
2017-Feb-19 17:33N 47°17' W 002°10'4 4.2
2017-Feb-19 16:33N 47°15' W 002°14'1515.3
2017-Feb-19 15:34N 47°03' W 002°29'1917.9
2017-Feb-19 14:30N 46°53' W 002°53'1917.4
2017-Feb-19 13:25N 46°42' W 003°15'  
2017-Feb-16 01:28N 46°32' W 003°40'1717.9
2017-Feb-16 00:32N 46°42' W 003°20'1818.2
2017-Feb-15 23:33N 46°52' W 002°59'1818.4
2017-Feb-15 22:33N 47°02' W 002°36'1716.9
2017-Feb-15 21:33N 47°12' W 002°17'7 6.0
2017-Feb-15 20:22N 47°17' W 002°10'0 0.0
2017-Feb-15 19:28N 47°17' W 002°10'0 0.0
2017-Feb-15 18:04N 47°17' W 002°10'0 0.0
2017-Feb-15 15:16N 47°17' W 002°10'0 0.0
2017-Feb-15 14:28N 47°17' W 002°10'0 0.0
2017-Feb-15 13:25N 47°17' W 002°10'0 0.0
2017-Feb-15 11:33N 47°17' W 002°10'0 0.0
2017-Feb-15 10:33N 47°17' W 002°10'0 0.0
2017-Feb-15 09:30N 47°17' W 002°10'0 0.0
2017-Feb-15 06:24N 47°17' W 002°10'0 0.0
2017-Feb-15 05:33N 47°17' W 002°10'0 0.0
2017-Feb-15 04:33N 47°17' W 002°10'0 0.0
2017-Feb-15 03:24N 47°17' W 002°10'0 0.0
2017-Feb-15 02:33N 47°17' W 002°10'0 0.0
2017-Feb-15 01:33N 47°17' W 002°10'0 0.0
2017-Feb-15 00:33N 47°17' W 002°10'0 0.0
2017-Feb-14 22:30N 47°17' W 002°10'0 0.0
2017-Feb-14 21:24N 47°17' W 002°10'0 0.0
2017-Feb-14 20:33N 47°17' W 002°10'1312.6
2017-Feb-14 19:32N 47°08' W 002°22'1616.1
2017-Feb-14 18:33N 46°59' W 002°41'1818.0
2017-Feb-14 17:33N 46°48' W 003°02'  
2017-Feb-11 16:18N 46°48' W 003°06'1318.0
2017-Feb-11 15:33N 46°56' W 002°50'1717.2
2017-Feb-11 14:33N 47°04' W 002°28'1514.9
2017-Feb-11 13:33N 47°15' W 002°13'3 3.0
2017-Feb-11 12:28N 47°17' W 002°10'0 0.0
2017-Feb-11 11:31N 47°17' W 002°10'0 0.0
2017-Feb-11 10:28N 47°17' W 002°10'0 0.0
2017-Feb-11 09:31N 47°17' W 002°10'0 0.0
2017-Feb-11 08:31N 47°17' W 002°10'0 0.0
2017-Feb-11 07:31N 47°17' W 002°10'0 0.0
2017-Feb-11 06:31N 47°17' W 002°10'0 0.0
2017-Feb-11 05:31N 47°17' W 002°10'0 0.0
2017-Feb-11 04:31N 47°17' W 002°10'  
Track history (hours):
 
Tides and Currents Weather Stations Pressure Air Temp Water Temp Dewpoint Dewpoint Depression Visibility Wind Speed Wind Dir Waves Ship Positions

Bouzas

Last reported at 2017-Feb-21 04:24 UTC. Time now 2017-Feb-23 04:53 UTC.
Position N 46°05' W 004°37'.

Length 142 m; draft 5.4 m.

Type: Cargo ship. MMSI: 224029000.

Date/timePositionNaut miles runAvg speedWind from/ knotsBaromVisibWave heightAir tempDewpointWater temp
2017-Feb-21 04:24N 46°05' W 004°37'1517.8
2017-Feb-21 03:33N 46°14' W 004°18'1817.9
2017-Feb-21 02:33N 46°24' W 003°57'1818.2
2017-Feb-21 01:33N 46°35' W 003°35'1717.7
2017-Feb-21 00:33N 46°44' W 003°14'1818.1
2017-Feb-20 23:33N 46°55' W 002°52'1717.0
2017-Feb-20 22:33N 47°03' W 002°30'1515.1
2017-Feb-20 21:33N 47°14' W 002°15'5 4.7
2017-Feb-20 20:31N 47°17' W 002°10'0 0.0
2017-Feb-20 19:31N 47°17' W 002°10'0 0.0
2017-Feb-20 18:22N 47°17' W 002°10'0 0.0
2017-Feb-20 17:04N 47°17' W 002°10'0 0.0
2017-Feb-20 16:25N 47°17' W 002°10'0 0.0
2017-Feb-20 15:28N 47°17' W 002°10'0 0.0
2017-Feb-20 14:31N 47°17' W 002°10'0 0.0
2017-Feb-20 13:31N 47°17' W 002°10'0 0.0
2017-Feb-20 12:22N 47°17' W 002°10'0 0.0
2017-Feb-20 11:07N 47°17' W 002°10'0 0.0
2017-Feb-20 10:28N 47°17' W 002°10'0 0.0
2017-Feb-20 08:31N 47°17' W 002°10'0 0.0
2017-Feb-20 07:19N 47°17' W 002°10'0 0.0
2017-Feb-20 06:25N 47°17' W 002°10'0 0.0
2017-Feb-20 05:31N 47°17' W 002°10'0 0.0
2017-Feb-20 04:31N 47°17' W 002°10'0 0.0
2017-Feb-20 03:31N 47°17' W 002°10'0 0.0
2017-Feb-20 02:31N 47°17' W 002°10'0 0.0
2017-Feb-20 01:33N 47°17' W 002°10'0 0.0
2017-Feb-20 00:33N 47°17' W 002°10'0 0.0
2017-Feb-19 23:33N 47°17' W 002°10'0 0.0
2017-Feb-19 22:33N 47°17' W 002°10'0 0.0
2017-Feb-19 21:33N 47°17' W 002°10'0 0.0
2017-Feb-19 20:33N 47°17' W 002°10'0 0.0
2017-Feb-19 19:33N 47°17' W 002°10'0 0.0
2017-Feb-19 18:33N 47°17' W 002°10'0 0.0
2017-Feb-19 17:33N 47°17' W 002°10'4 4.2
2017-Feb-19 16:33N 47°15' W 002°14'1515.3
2017-Feb-19 15:34N 47°03' W 002°29'1917.9
2017-Feb-19 14:30N 46°53' W 002°53'1917.4
2017-Feb-19 13:25N 46°42' W 003°15'  
2017-Feb-16 01:28N 46°32' W 003°40'1717.9
2017-Feb-16 00:32N 46°42' W 003°20'1818.2
2017-Feb-15 23:33N 46°52' W 002°59'1818.4
2017-Feb-15 22:33N 47°02' W 002°36'1716.9
2017-Feb-15 21:33N 47°12' W 002°17'7 6.0
2017-Feb-15 20:22N 47°17' W 002°10'0 0.0
2017-Feb-15 19:28N 47°17' W 002°10'0 0.0
2017-Feb-15 18:04N 47°17' W 002°10'0 0.0
2017-Feb-15 15:16N 47°17' W 002°10'0 0.0
2017-Feb-15 14:28N 47°17' W 002°10'0 0.0
2017-Feb-15 13:25N 47°17' W 002°10'0 0.0
2017-Feb-15 11:33N 47°17' W 002°10'0 0.0
2017-Feb-15 10:33N 47°17' W 002°10'0 0.0
2017-Feb-15 09:30N 47°17' W 002°10'0 0.0
2017-Feb-15 06:24N 47°17' W 002°10'0 0.0
2017-Feb-15 05:33N 47°17' W 002°10'0 0.0
2017-Feb-15 04:33N 47°17' W 002°10'0 0.0
2017-Feb-15 03:24N 47°17' W 002°10'0 0.0
2017-Feb-15 02:33N 47°17' W 002°10'0 0.0
2017-Feb-15 01:33N 47°17' W 002°10'0 0.0
2017-Feb-15 00:33N 47°17' W 002°10'0 0.0
2017-Feb-14 22:30N 47°17' W 002°10'0 0.0
2017-Feb-14 21:24N 47°17' W 002°10'0 0.0
2017-Feb-14 20:33N 47°17' W 002°10'1312.6
2017-Feb-14 19:32N 47°08' W 002°22'1616.1
2017-Feb-14 18:33N 46°59' W 002°41'1818.0
2017-Feb-14 17:33N 46°48' W 003°02'  
2017-Feb-11 16:18N 46°48' W 003°06'1318.0
2017-Feb-11 15:33N 46°56' W 002°50'1717.2
2017-Feb-11 14:33N 47°04' W 002°28'1514.9
2017-Feb-11 13:33N 47°15' W 002°13'3 3.0
2017-Feb-11 12:28N 47°17' W 002°10'0 0.0
2017-Feb-11 11:31N 47°17' W 002°10'0 0.0
2017-Feb-11 10:28N 47°17' W 002°10'0 0.0
2017-Feb-11 09:31N 47°17' W 002°10'0 0.0
2017-Feb-11 08:31N 47°17' W 002°10'0 0.0
2017-Feb-11 07:31N 47°17' W 002°10'0 0.0
2017-Feb-11 06:31N 47°17' W 002°10'0 0.0
2017-Feb-11 05:31N 47°17' W 002°10'0 0.0
2017-Feb-11 04:31N 47°17' W 002°10'  

Dump ship's entire track history